createdAt,value
2023-05-18T00:04:08.634Z,1
2023-05-18T00:10:28.591Z,1
2023-05-18T00:16:51.725Z,0.6
2023-05-18T00:23:11.541Z,0.6
2023-05-18T00:29:34.657Z,3
2023-05-18T00:35:54.603Z,3
2023-05-18T00:42:17.632Z,3.5
2023-05-18T00:48:37.651Z,3.5
2023-05-18T00:55:01.313Z,1.6
2023-05-18T01:01:21.637Z,1.6
2023-05-18T01:07:44.657Z,2.8
2023-05-18T01:14:04.555Z,2.8
2023-05-18T01:20:27.761Z,2.1
2023-05-18T01:26:47.537Z,2.1
2023-05-18T01:33:10.860Z,1.7
2023-05-18T01:39:30.593Z,1.7
2023-05-18T01:45:53.699Z,1.8
2023-05-18T01:52:13.662Z,1.8
2023-05-18T01:58:36.630Z,2.3
2023-05-18T02:04:56.620Z,2.3
2023-05-18T02:11:19.644Z,1.5
2023-05-18T02:17:39.653Z,1.5
2023-05-18T02:24:02.683Z,1.5
2023-05-18T02:30:22.651Z,1.5
2023-05-18T02:36:45.563Z,1.6
2023-05-18T02:43:05.569Z,1.6
2023-05-18T02:49:28.629Z,2.8
2023-05-18T02:55:48.560Z,2.8
2023-05-18T03:19:41.489Z,4.2
2023-05-18T03:26:04.487Z,4.2
2023-05-18T03:32:24.601Z,4.2
2023-05-18T03:38:47.543Z,2.4
2023-05-18T03:45:07.733Z,2.4
2023-05-18T03:51:30.584Z,2.2
2023-05-18T03:57:50.860Z,2.2
2023-05-18T04:04:13.504Z,1.2
2023-05-18T04:10:33.688Z,1.2
2023-05-18T04:16:56.788Z,0.8
2023-05-18T04:23:16.510Z,0.8
2023-05-18T04:29:39.565Z,2
2023-05-18T04:35:59.529Z,2
2023-05-18T04:42:22.531Z,3
2023-05-18T04:48:42.691Z,3
2023-05-18T04:55:05.563Z,1.9
2023-05-18T05:01:25.603Z,1.9
2023-05-18T05:07:48.532Z,2
2023-05-18T05:14:08.522Z,2
2023-05-18T05:20:31.541Z,1.2
2023-05-18T05:26:51.675Z,1.2
2023-05-18T05:33:14.666Z,1.9
2023-05-18T05:39:35.368Z,1.9
2023-05-18T05:45:58.493Z,1.5
2023-05-18T05:52:18.596Z,1.5
2023-05-18T05:58:41.599Z,2.3
2023-05-18T06:05:01.723Z,2.3
2023-05-18T06:11:24.642Z,2.9
2023-05-18T06:17:44.639Z,2.9
2023-05-18T06:24:08.254Z,2.7
2023-05-18T06:30:28.549Z,2.7
2023-05-18T06:36:51.606Z,1.8
2023-05-18T06:43:11.729Z,1.8
2023-05-18T06:49:34.670Z,2.3
2023-05-18T06:55:54.582Z,2.3
2023-05-18T07:02:17.611Z,2.3
2023-05-18T07:08:37.600Z,2.3
2023-05-18T07:15:00.668Z,2
2023-05-18T07:21:20.542Z,2
2023-05-18T07:27:43.646Z,2.4
2023-05-18T07:34:03.640Z,2.4
2023-05-18T07:40:26.574Z,2.4
2023-05-18T07:46:46.682Z,2.4
2023-05-18T07:53:09.606Z,1.9
2023-05-18T07:59:29.557Z,1.9
2023-05-18T08:05:52.554Z,3
2023-05-18T08:12:12.547Z,3
2023-05-18T08:28:04.593Z,2.4
2023-05-18T08:34:24.513Z,2.4
2023-05-18T08:40:47.547Z,0.9
2023-05-18T08:47:07.694Z,0.9
2023-05-18T08:53:30.510Z,2.8
2023-05-18T08:59:50.605Z,2.8
2023-05-18T09:06:13.598Z,2.4
2023-05-18T09:12:33.509Z,2.4
2023-05-18T09:18:56.622Z,0.6
2023-05-18T09:25:16.573Z,0.6
2023-05-18T09:31:39.560Z,1.7
2023-05-18T09:37:59.632Z,1.7
2023-05-18T09:44:22.544Z,0.5
2023-05-18T09:50:42.565Z,0.5
2023-05-18T09:57:10.047Z,1.4
2023-05-18T10:03:25.606Z,1.4
2023-05-18T10:09:48.576Z,0.3
2023-05-18T10:16:08.546Z,0.3
2023-05-18T10:22:31.641Z,1
2023-05-18T10:28:51.557Z,1
2023-05-18T10:35:14.557Z,1.6
2023-05-18T10:41:34.627Z,1.6
2023-05-18T10:47:57.589Z,2.4
2023-05-18T10:54:17.926Z,2.4
2023-05-18T11:00:40.725Z,1.8
2023-05-18T11:07:00.822Z,1.8
2023-05-18T11:13:23.511Z,0.9
2023-05-18T11:19:43.520Z,0.9
2023-05-18T11:26:06.542Z,1.7
2023-05-18T11:32:29.674Z,1.7
2023-05-18T11:38:49.557Z,1.9
2023-05-18T11:45:09.491Z,1.9
2023-05-18T11:51:32.487Z,1.1
2023-05-18T11:57:53.085Z,1.1
2023-05-18T12:04:15.614Z,0.6
2023-05-18T12:10:35.482Z,0.6
2023-05-18T12:16:58.569Z,1.4
2023-05-18T12:23:18.487Z,1.4
2023-05-18T12:29:41.556Z,0.5
2023-05-18T12:36:01.524Z,0.5
2023-05-18T12:42:24.474Z,0.3
2023-05-18T12:48:44.535Z,0.3
2023-05-18T12:55:07.510Z,1.2
2023-05-18T13:01:27.606Z,1.2
2023-05-18T13:07:50.492Z,0.5
2023-05-18T13:14:10.512Z,0.5
2023-05-18T13:20:35.883Z,1
2023-05-18T13:26:53.522Z,1
2023-05-18T13:33:16.566Z,0.7
2023-05-18T13:39:36.521Z,0.7
2023-05-18T13:45:59.527Z,0.9
2023-05-18T14:02:25.256Z,0.4
2023-05-18T14:08:48.015Z,2
2023-05-18T14:15:07.495Z,2
2023-05-18T14:21:30.582Z,2
2023-05-18T14:27:50.538Z,2
2023-05-18T14:34:13.578Z,1.7
2023-05-18T14:40:33.705Z,1.7
2023-05-18T14:46:56.562Z,1.2
2023-05-18T14:53:16.540Z,1.2
2023-05-18T14:59:39.540Z,1.1
2023-05-18T15:05:59.609Z,1.1
2023-05-18T15:12:22.471Z,1
2023-05-18T15:18:42.546Z,1
2023-05-18T15:25:05.484Z,1.6
2023-05-18T15:31:25.494Z,1.6
2023-05-18T15:37:48.631Z,2
2023-05-18T15:44:08.473Z,2
2023-05-18T15:50:31.671Z,0.7
2023-05-18T15:56:51.657Z,0.7
2023-05-18T16:03:14.553Z,2
2023-05-18T16:09:34.525Z,2
2023-05-18T16:15:57.518Z,0.9
2023-05-18T16:22:17.517Z,0.9
2023-05-18T16:28:40.550Z,1.5
2023-05-18T16:35:00.617Z,1.5
2023-05-18T16:41:23.870Z,1
2023-05-18T16:47:43.613Z,1
2023-05-18T16:54:06.576Z,2.3
2023-05-18T17:00:26.654Z,2.3
2023-05-18T17:06:49.651Z,1.1
2023-05-18T17:13:09.634Z,1.1
2023-05-18T17:19:32.611Z,0.8
2023-05-18T17:25:55.052Z,0.8
2023-05-18T17:32:15.570Z,1.8
2023-05-18T17:38:35.594Z,1.8
2023-05-18T17:44:58.612Z,0.5
2023-05-18T17:51:18.640Z,0.5
2023-05-18T17:57:41.590Z,1.6
2023-05-18T18:04:01.674Z,1.6
2023-05-18T18:10:24.638Z,2.6
2023-05-18T18:16:44.737Z,2.6
2023-05-18T18:23:07.654Z,1
2023-05-18T18:29:27.548Z,1
2023-05-18T18:35:50.586Z,1.8
2023-05-18T18:42:10.516Z,1.8
2023-05-18T18:48:33.557Z,1
2023-05-18T18:54:53.631Z,1
2023-05-18T19:01:16.599Z,0.6
2023-05-18T19:07:36.661Z,0.6
2023-05-18T19:23:46.318Z,0.9
2023-05-18T19:30:06.512Z,0.9
2023-05-18T19:36:29.484Z,1.7
2023-05-18T19:42:49.649Z,1.7
2023-05-18T19:49:12.468Z,0.1
2023-05-18T19:55:33.170Z,0.1
2023-05-18T20:01:55.593Z,0.8
2023-05-18T20:08:15.534Z,0.8
2023-05-18T20:14:38.686Z,0.6
2023-05-18T20:20:58.690Z,0.6
2023-05-18T20:27:21.569Z,1.5
2023-05-18T20:33:41.503Z,1.5
2023-05-18T20:40:04.592Z,0.5
2023-05-18T20:46:24.833Z,0.5
2023-05-18T20:52:47.478Z,0.5
2023-05-18T20:59:07.587Z,0.5
2023-05-18T21:05:30.729Z,1.4
2023-05-18T21:11:50.666Z,1.4
2023-05-18T21:18:13.635Z,0.6
2023-05-18T21:24:33.526Z,0.6
2023-05-18T21:30:56.522Z,0.6
2023-05-18T21:37:16.601Z,0.6
2023-05-18T21:43:39.524Z,0.8
2023-05-18T21:49:59.674Z,0.8
2023-05-18T21:56:22.522Z,1.1
2023-05-18T22:21:53.505Z,3.2
2023-05-18T22:28:13.519Z,3.2
2023-05-18T22:34:36.491Z,3.2
2023-05-18T22:40:56.595Z,3.2
2023-05-18T22:47:19.559Z,2.8
2023-05-18T22:53:39.574Z,2.8
2023-05-18T23:00:02.563Z,2.9
2023-05-18T23:06:22.595Z,2.9
2023-05-18T23:12:45.499Z,2.6
2023-05-18T23:19:05.639Z,2.6
2023-05-18T23:25:28.488Z,1.5
2023-05-18T23:31:48.602Z,1.5
2023-05-18T23:38:11.616Z,0.8
2023-05-18T23:44:31.526Z,0.8
2023-05-18T23:50:54.545Z,2.6
2023-05-18T23:57:14.606Z,2.6
